createdAt,value
2018-09-30T00:00:20.765Z,64.40
2018-09-30T00:00:53.808Z,64.50
2018-09-30T00:01:26.864Z,64.40
2018-09-30T00:01:59.920Z,64.30
2018-09-30T00:02:32.936Z,64.30
2018-09-30T00:03:05.978Z,64.30
2018-09-30T00:03:39.055Z,64.30
2018-09-30T00:04:12.082Z,64.50
2018-09-30T00:04:45.886Z,64.50
2018-09-30T00:05:19.689Z,64.50
2018-09-30T00:05:52.722Z,64.50
2018-09-30T00:06:25.761Z,64.60
2018-09-30T00:06:58.884Z,64.60
2018-09-30T00:07:31.932Z,64.60
2018-09-30T00:08:04.988Z,64.60
2018-09-30T00:08:38.015Z,64.60
2018-09-30T00:09:11.063Z,64.60
2018-09-30T00:09:44.864Z,64.50
2018-09-30T00:10:17.904Z,64.50
2018-09-30T00:10:50.944Z,64.70
2018-09-30T00:11:23.994Z,64.60
2018-09-30T00:11:57.028Z,64.50
2018-09-30T00:12:30.056Z,64.50
2018-09-30T00:13:03.104Z,64.40
2018-09-30T00:13:36.147Z,64.60
2018-09-30T00:14:09.164Z,64.60
2018-09-30T00:14:42.220Z,64.40
2018-09-30T00:15:15.247Z,64.60
2018-09-30T00:15:48.303Z,65.00
2018-09-30T00:16:22.104Z,64.80
2018-09-30T00:16:55.133Z,64.80
2018-09-30T00:17:28.144Z,64.70
2018-09-30T00:18:01.976Z,64.70
2018-09-30T00:18:35.160Z,64.70
2018-09-30T00:19:08.224Z,64.70
2018-09-30T00:19:41.352Z,64.60
2018-09-30T00:20:14.282Z,64.60
2018-09-30T00:20:47.321Z,64.60
2018-09-30T00:21:20.356Z,64.50
2018-09-30T00:21:53.428Z,64.50
2018-09-30T00:22:26.450Z,64.50
2018-09-30T00:22:59.483Z,64.50
2018-09-30T00:23:32.527Z,64.60
2018-09-30T00:24:05.575Z,64.50
2018-09-30T00:24:57.325Z,64.60
2018-09-30T00:26:49.055Z,64.40
2018-09-30T00:27:22.105Z,64.50
2018-09-30T00:27:55.139Z,65.20
2018-09-30T00:28:28.207Z,64.30
2018-09-30T00:29:01.239Z,64.30
2018-09-30T00:29:35.029Z,64.50
2018-09-30T00:30:08.079Z,64.50
2018-09-30T00:30:41.115Z,64.60
2018-09-30T00:31:14.166Z,64.50
2018-09-30T00:31:47.179Z,64.50
2018-09-30T00:32:20.201Z,64.50
2018-09-30T00:32:53.243Z,64.50
2018-09-30T00:33:27.061Z,64.50
2018-09-30T00:34:00.111Z,64.40
2018-09-30T00:34:33.910Z,65.50
2018-09-30T00:35:06.953Z,64.60
2018-09-30T00:35:39.974Z,64.60
2018-09-30T00:36:13.073Z,65.50
2018-09-30T00:36:46.036Z,64.50
2018-09-30T00:37:19.069Z,64.60
2018-09-30T00:37:52.869Z,64.70
2018-09-30T00:38:25.897Z,64.50
2018-09-30T00:38:58.950Z,64.60
2018-09-30T00:39:31.993Z,64.60
2018-09-30T00:40:05.935Z,64.50
2018-09-30T00:40:38.942Z,64.60
2018-09-30T00:41:11.989Z,64.70
2018-09-30T00:41:45.025Z,64.80
2018-09-30T00:42:18.056Z,64.70
2018-09-30T00:42:51.096Z,64.70
2018-09-30T00:43:24.134Z,64.60
2018-09-30T00:43:57.166Z,65.50
2018-09-30T00:44:30.191Z,64.60
2018-09-30T00:45:03.243Z,64.60
2018-09-30T00:45:36.560Z,64.70
2018-09-30T00:46:09.588Z,64.70
2018-09-30T00:46:42.621Z,64.60
2018-09-30T00:47:15.672Z,64.70
2018-09-30T00:47:48.694Z,64.80
2018-09-30T00:48:21.746Z,64.80
2018-09-30T00:48:54.768Z,64.80
2018-09-30T00:49:28.562Z,64.80
2018-09-30T00:50:02.365Z,64.80
2018-09-30T00:50:36.172Z,64.90
2018-09-30T00:51:09.222Z,64.90
2018-09-30T00:51:42.281Z,64.90
2018-09-30T00:52:15.324Z,64.80
2018-09-30T00:52:49.130Z,65.00
2018-09-30T00:53:22.184Z,64.90
2018-09-30T00:53:55.477Z,64.90
2018-09-30T00:54:28.500Z,64.80
2018-09-30T00:55:01.528Z,64.90
2018-09-30T00:55:34.551Z,64.80
2018-09-30T00:56:08.349Z,64.80
2018-09-30T00:56:42.144Z,65.60
2018-09-30T00:57:15.175Z,64.90
2018-09-30T00:57:48.205Z,64.80
2018-09-30T00:58:21.497Z,64.80
2018-09-30T00:58:54.549Z,64.70
2018-09-30T00:59:27.578Z,64.80
2018-09-30T01:00:00.612Z,64.80
2018-09-30T01:00:33.642Z,64.90
2018-09-30T01:01:07.448Z,65.00
2018-09-30T01:01:41.252Z,64.90
2018-09-30T01:02:14.280Z,64.90
2018-09-30T01:02:47.311Z,64.80
2018-09-30T01:03:20.337Z,64.90
2018-09-30T01:03:53.396Z,65.00
2018-09-30T01:04:26.431Z,64.80
2018-09-30T01:04:59.477Z,64.70
2018-09-30T01:05:32.515Z,65.00
2018-09-30T01:06:05.589Z,64.80
2018-09-30T01:06:38.619Z,64.90
2018-09-30T01:07:12.427Z,64.70
2018-09-30T01:07:45.717Z,64.70
2018-09-30T01:08:18.764Z,64.90
2018-09-30T01:08:51.814Z,65.00
2018-09-30T01:09:24.839Z,64.70
2018-09-30T01:09:58.025Z,64.60
2018-09-30T01:10:31.063Z,64.70
2018-09-30T01:11:04.100Z,64.80
2018-09-30T01:11:37.142Z,64.90
2018-09-30T01:12:10.181Z,64.90
2018-09-30T01:12:43.204Z,64.90
2018-09-30T01:13:16.230Z,64.60
2018-09-30T01:13:50.047Z,64.80
2018-09-30T01:14:23.087Z,64.80
2018-09-30T01:14:56.110Z,65.70
2018-09-30T01:15:29.140Z,64.80
2018-09-30T01:16:02.156Z,64.90
2018-09-30T01:16:35.176Z,64.90
2018-09-30T01:17:08.248Z,64.80
2018-09-30T01:17:41.287Z,64.90
2018-09-30T01:18:14.334Z,64.90
2018-09-30T01:18:47.371Z,65.00
2018-09-30T01:19:20.398Z,64.80
2018-09-30T01:19:53.420Z,64.80
2018-09-30T01:20:26.454Z,64.70
2018-09-30T01:20:59.484Z,64.80
2018-09-30T01:21:32.528Z,64.70
2018-09-30T01:22:05.581Z,64.70
2018-09-30T01:22:38.751Z,65.70
2018-09-30T01:23:11.834Z,64.90
2018-09-30T01:23:44.883Z,65.00
2018-09-30T01:24:17.923Z,64.80
2018-09-30T01:24:50.949Z,64.90
2018-09-30T01:25:24.001Z,65.00
2018-09-30T01:25:57.037Z,64.80
2018-09-30T01:26:30.102Z,64.80
2018-09-30T01:27:03.144Z,64.80
2018-09-30T01:27:36.191Z,64.70
2018-09-30T01:28:09.999Z,65.50
2018-09-30T01:28:43.332Z,64.80
2018-09-30T01:29:16.372Z,64.70
2018-09-30T01:29:49.392Z,64.80
2018-09-30T01:30:22.436Z,64.70
2018-09-30T01:30:55.471Z,64.70
2018-09-30T01:31:29.259Z,64.90
2018-09-30T01:32:03.076Z,64.80
2018-09-30T01:32:36.114Z,64.80
2018-09-30T01:33:09.139Z,64.60
2018-09-30T01:33:42.932Z,64.60
2018-09-30T01:34:15.963Z,65.40
2018-09-30T01:34:49.766Z,64.90
2018-09-30T01:35:23.560Z,64.90
2018-09-30T01:35:57.361Z,64.80
2018-09-30T01:36:30.409Z,64.80
2018-09-30T01:37:03.450Z,64.90
2018-09-30T01:37:36.475Z,64.70
2018-09-30T01:38:10.263Z,64.80
2018-09-30T01:38:44.052Z,64.90
2018-09-30T01:39:17.856Z,64.80
2018-09-30T01:39:50.912Z,64.60
2018-09-30T01:40:23.937Z,64.70
2018-09-30T01:40:56.968Z,64.90
2018-09-30T01:41:30.772Z,64.90
2018-09-30T01:42:04.579Z,65.00
2018-09-30T01:42:37.607Z,65.00
2018-09-30T01:43:11.568Z,64.80
2018-09-30T01:43:44.605Z,64.80
2018-09-30T01:44:17.654Z,65.00
2018-09-30T01:44:50.708Z,64.90
2018-09-30T01:45:23.748Z,64.90
2018-09-30T01:45:56.789Z,65.00
2018-09-30T01:46:29.828Z,65.00
2018-09-30T01:47:02.865Z,64.80
2018-09-30T01:47:35.923Z,64.90
2018-09-30T01:48:09.708Z,65.00
2018-09-30T01:48:43.514Z,65.10
2018-09-30T01:49:17.332Z,64.90
2018-09-30T01:49:50.360Z,65.70
2018-09-30T01:50:24.118Z,65.00
2018-09-30T01:50:57.152Z,65.00
2018-09-30T01:51:30.180Z,65.00
2018-09-30T01:52:26.892Z,65.00
2018-09-30T01:52:59.915Z,65.10
2018-09-30T01:53:33.734Z,65.10
2018-09-30T01:54:06.811Z,65.10
2018-09-30T01:54:39.844Z,64.90
2018-09-30T01:55:12.889Z,65.30
2018-09-30T01:55:45.931Z,65.10
2018-09-30T01:56:18.971Z,65.90
2018-09-30T01:56:51.986Z,65.10
2018-09-30T01:57:25.023Z,65.20
2018-09-30T01:57:58.064Z,65.20
2018-09-30T01:58:31.122Z,65.10
2018-09-30T01:59:04.163Z,65.30
2018-09-30T01:59:37.959Z,65.10
2018-09-30T02:00:10.988Z,65.10
2018-09-30T02:00:44.079Z,65.10
2018-09-30T02:01:17.116Z,65.10
2018-09-30T02:01:50.146Z,65.00
2018-09-30T02:02:23.929Z,65.20
2018-09-30T02:02:56.956Z,65.20
2018-09-30T02:03:29.987Z,65.10
2018-09-30T02:04:03.188Z,65.00
2018-09-30T02:04:36.216Z,65.00
2018-09-30T02:05:09.248Z,65.10
2018-09-30T02:05:42.292Z,65.00
2018-09-30T02:06:15.328Z,65.00
2018-09-30T02:06:48.367Z,65.10
2018-09-30T02:07:21.396Z,65.20
2018-09-30T02:07:54.429Z,65.00
2018-09-30T02:08:27.455Z,65.00
2018-09-30T02:09:01.268Z,64.60
2018-09-30T02:09:35.051Z,65.20
2018-09-30T02:10:08.849Z,65.10
2018-09-30T02:10:42.648Z,65.10
2018-09-30T02:11:15.673Z,65.10
2018-09-30T02:11:48.713Z,65.10
2018-09-30T02:12:21.799Z,65.10
2018-09-30T02:12:54.852Z,65.10
2018-09-30T02:13:27.879Z,65.20
2018-09-30T02:14:01.700Z,65.20
2018-09-30T02:14:35.520Z,65.10
2018-09-30T02:15:08.558Z,65.10
2018-09-30T02:15:41.589Z,65.40
2018-09-30T02:16:14.630Z,65.30
2018-09-30T02:16:47.670Z,65.20
2018-09-30T02:17:20.708Z,65.30
2018-09-30T02:17:53.735Z,65.10
2018-09-30T02:18:27.537Z,65.20
2018-09-30T02:19:01.336Z,65.20
2018-09-30T02:19:34.373Z,65.20
2018-09-30T02:20:07.416Z,65.10
2018-09-30T02:20:40.449Z,65.40
2018-09-30T02:21:14.246Z,65.30
2018-09-30T02:21:48.034Z,65.10
2018-09-30T02:22:21.835Z,65.30
2018-09-30T02:22:55.649Z,65.10
2018-09-30T02:23:28.669Z,65.10
2018-09-30T02:24:01.706Z,65.10
2018-09-30T02:24:34.751Z,65.10
2018-09-30T02:25:08.735Z,65.10
2018-09-30T02:25:41.748Z,65.10
2018-09-30T02:26:14.792Z,65.10
2018-09-30T02:26:48.589Z,65.20
2018-09-30T02:27:21.701Z,65.20
2018-09-30T02:27:54.724Z,65.20
2018-09-30T02:28:27.850Z,65.30
2018-09-30T02:29:01.019Z,65.30
2018-09-30T02:29:34.068Z,65.40
2018-09-30T02:30:07.110Z,65.40
2018-09-30T02:30:40.155Z,66.30
2018-09-30T02:31:13.179Z,65.40
2018-09-30T02:31:46.211Z,65.50
2018-09-30T02:32:19.235Z,65.40
2018-09-30T02:32:53.038Z,65.50
2018-09-30T02:33:26.817Z,65.60
2018-09-30T02:34:00.611Z,65.70
2018-09-30T02:34:34.423Z,65.70
2018-09-30T02:35:07.463Z,65.60
2018-09-30T02:35:40.496Z,65.70
2018-09-30T02:36:13.520Z,65.80
2018-09-30T02:36:47.341Z,65.80
2018-09-30T02:37:20.363Z,65.80
2018-09-30T02:37:53.403Z,65.70
2018-09-30T02:38:26.438Z,65.60
2018-09-30T02:39:00.239Z,65.90
2018-09-30T02:39:34.053Z,65.80
2018-09-30T02:40:07.100Z,65.80
2018-09-30T02:40:40.130Z,65.80
2018-09-30T02:41:13.161Z,65.80
2018-09-30T02:41:46.192Z,65.80
2018-09-30T02:42:19.216Z,65.70
2018-09-30T02:42:52.245Z,65.70
2018-09-30T02:43:25.272Z,65.70
2018-09-30T02:43:58.304Z,65.90
2018-09-30T02:44:31.338Z,65.90
2018-09-30T02:45:04.376Z,66.00
2018-09-30T02:45:37.408Z,66.00
2018-09-30T02:46:10.452Z,66.00
2018-09-30T02:46:43.488Z,65.90
2018-09-30T02:47:17.322Z,66.00
2018-09-30T02:47:50.329Z,66.00
2018-09-30T02:48:23.371Z,66.00
2018-09-30T02:48:56.401Z,66.00
2018-09-30T02:49:30.187Z,66.10
2018-09-30T02:50:04.017Z,66.00
2018-09-30T02:50:37.064Z,66.00
2018-09-30T02:51:10.171Z,66.10
2018-09-30T02:51:43.456Z,65.90
2018-09-30T02:52:16.728Z,66.00
2018-09-30T02:52:49.757Z,66.10
2018-09-30T02:53:22.797Z,66.20
2018-09-30T02:53:55.868Z,66.20
2018-09-30T02:54:28.900Z,66.10
2018-09-30T02:55:01.939Z,66.20
2018-09-30T02:55:34.991Z,66.20
2018-09-30T02:56:08.156Z,66.10
2018-09-30T02:56:41.199Z,66.20
2018-09-30T02:57:15.001Z,66.20
2018-09-30T02:57:48.796Z,66.30
2018-09-30T02:58:21.835Z,66.30
2018-09-30T02:58:54.860Z,66.30
2018-09-30T02:59:27.884Z,66.40
2018-09-30T03:00:00.916Z,66.40
2018-09-30T03:00:33.939Z,66.40
2018-09-30T03:01:06.963Z,66.60
2018-09-30T03:01:39.983Z,66.60
2018-09-30T03:02:13.022Z,66.60
2018-09-30T03:02:46.048Z,66.60
2018-09-30T03:03:19.838Z,67.40
2018-09-30T03:03:53.631Z,66.70
2018-09-30T03:04:27.424Z,66.80
2018-09-30T03:05:01.564Z,67.50
2018-09-30T03:05:34.589Z,66.60
2018-09-30T03:06:07.627Z,66.50
2018-09-30T03:06:40.685Z,66.60
2018-09-30T03:07:13.697Z,66.70
2018-09-30T03:07:52.384Z,66.80
2018-09-30T03:08:31.224Z,66.80
2018-09-30T03:09:08.630Z,66.80
2018-09-30T03:09:42.440Z,66.90
2018-09-30T03:10:15.516Z,66.80
2018-09-30T03:10:48.550Z,66.90
2018-09-30T03:11:21.590Z,66.90
2018-09-30T03:11:54.615Z,66.90
2018-09-30T03:12:27.646Z,66.90
2018-09-30T03:13:00.685Z,66.80
2018-09-30T03:13:33.710Z,67.90
2018-09-30T03:14:06.744Z,67.00
2018-09-30T03:14:39.782Z,66.90
2018-09-30T03:15:13.588Z,66.90
2018-09-30T03:15:46.624Z,66.90
2018-09-30T03:16:19.659Z,66.90
2018-09-30T03:16:52.688Z,66.90
2018-09-30T03:17:25.729Z,66.90
2018-09-30T03:17:58.768Z,67.70
2018-09-30T03:18:31.799Z,66.90
2018-09-30T03:19:04.853Z,66.90
2018-09-30T03:19:37.875Z,66.80
2018-09-30T03:20:10.921Z,66.90
2018-09-30T03:20:43.956Z,66.90
2018-09-30T03:21:16.985Z,67.10
2018-09-30T03:21:50.019Z,67.00
2018-09-30T03:22:23.042Z,67.10
2018-09-30T03:22:57.235Z,67.00
2018-09-30T03:23:30.196Z,66.90
2018-09-30T03:24:03.252Z,67.00
2018-09-30T03:24:36.275Z,67.10
2018-09-30T03:25:10.083Z,67.00
2018-09-30T03:25:43.111Z,67.00
2018-09-30T03:26:16.140Z,67.10
2018-09-30T03:26:49.186Z,67.00
2018-09-30T03:27:23.006Z,67.00
2018-09-30T03:27:56.050Z,67.00
2018-09-30T03:28:29.075Z,67.10
2018-09-30T03:29:02.129Z,67.10
2018-09-30T03:29:35.161Z,67.00
2018-09-30T03:30:08.200Z,67.00
2018-09-30T03:30:41.235Z,67.00
2018-09-30T03:31:14.493Z,67.10
2018-09-30T03:31:47.510Z,67.10
2018-09-30T03:32:20.541Z,67.20
2018-09-30T03:32:53.577Z,67.00
2018-09-30T03:33:26.615Z,67.20
2018-09-30T03:34:00.423Z,67.30
2018-09-30T03:34:33.440Z,67.10
2018-09-30T03:35:06.491Z,67.20
2018-09-30T03:35:39.514Z,67.20
2018-09-30T03:36:13.307Z,67.30
2018-09-30T03:36:47.108Z,67.30
2018-09-30T03:37:20.894Z,67.20
2018-09-30T03:37:54.693Z,67.20
2018-09-30T03:38:28.483Z,67.30
2018-09-30T03:39:02.612Z,67.30
2018-09-30T03:39:36.436Z,67.20
2018-09-30T03:40:09.503Z,67.20
2018-09-30T03:40:42.553Z,67.10
2018-09-30T03:41:15.577Z,67.10
2018-09-30T03:41:48.615Z,67.10
2018-09-30T03:42:21.827Z,67.10
2018-09-30T03:42:55.583Z,67.20
2018-09-30T03:43:28.623Z,67.20
2018-09-30T03:44:01.652Z,67.10
2018-09-30T03:44:34.698Z,67.10
2018-09-30T03:45:07.753Z,67.00
2018-09-30T03:45:40.804Z,67.00
2018-09-30T03:46:13.823Z,67.10
2018-09-30T03:46:46.860Z,67.10
2018-09-30T03:47:19.900Z,67.10
2018-09-30T03:47:53.695Z,67.30
2018-09-30T03:48:26.745Z,67.20
2018-09-30T03:48:59.919Z,67.10
2018-09-30T03:49:32.941Z,67.20
2018-09-30T03:50:05.968Z,67.20
2018-09-30T03:50:39.019Z,67.20
2018-09-30T03:51:12.062Z,67.20
2018-09-30T03:51:45.106Z,67.30
2018-09-30T03:52:18.126Z,67.20
2018-09-30T03:52:51.919Z,67.20
2018-09-30T03:53:25.713Z,67.30
2018-09-30T03:53:59.508Z,67.20
2018-09-30T03:54:33.308Z,67.10
2018-09-30T03:55:07.103Z,67.10
2018-09-30T03:55:40.168Z,67.10
2018-09-30T03:56:13.204Z,67.20
2018-09-30T03:56:46.300Z,67.30
2018-09-30T03:57:19.293Z,67.30
2018-09-30T03:57:52.336Z,67.30
2018-09-30T03:58:25.409Z,67.20
2018-09-30T03:58:58.436Z,67.20
2018-09-30T03:59:31.448Z,67.20
2018-09-30T04:00:04.507Z,67.20
2018-09-30T04:00:37.550Z,67.30
2018-09-30T04:01:10.589Z,67.20
2018-09-30T04:01:43.625Z,67.40
2018-09-30T04:02:16.660Z,67.30
2018-09-30T04:02:50.445Z,67.90
2018-09-30T04:03:24.261Z,67.30
2018-09-30T04:03:57.288Z,67.10
2018-09-30T04:04:30.336Z,67.30
2018-09-30T04:05:03.373Z,67.30
2018-09-30T04:05:36.408Z,67.20
2018-09-30T04:06:09.444Z,67.30
2018-09-30T04:06:42.480Z,67.20
2018-09-30T04:07:15.507Z,67.20
2018-09-30T04:07:48.551Z,67.30
2018-09-30T04:08:21.582Z,68.20
2018-09-30T04:08:55.372Z,67.40
2018-09-30T04:09:28.461Z,67.40
2018-09-30T04:10:01.483Z,67.50
2018-09-30T04:10:35.255Z,68.40
2018-09-30T04:11:09.062Z,67.60
2018-09-30T04:11:42.101Z,67.40
2018-09-30T04:12:15.134Z,67.60
2018-09-30T04:12:48.163Z,67.60
2018-09-30T04:13:21.953Z,67.70
2018-09-30T04:13:55.744Z,67.70
2018-09-30T04:14:29.541Z,67.70
2018-09-30T04:15:03.344Z,67.80
2018-09-30T04:15:36.396Z,67.80
2018-09-30T04:16:09.428Z,67.80
2018-09-30T04:16:42.520Z,67.80
2018-09-30T04:17:15.545Z,67.90
2018-09-30T04:17:48.538Z,67.90
2018-09-30T04:18:21.563Z,67.90
2018-09-30T04:18:54.598Z,67.90
2018-09-30T04:19:27.639Z,67.90
2018-09-30T04:20:00.669Z,67.90
2018-09-30T04:20:34.481Z,68.00
2018-09-30T04:21:07.523Z,67.90
2018-09-30T04:21:40.549Z,67.90
2018-09-30T04:22:13.567Z,68.00
2018-09-30T04:22:46.607Z,67.90
2018-09-30T04:23:20.408Z,68.00
2018-09-30T04:23:53.432Z,68.00
2018-09-30T04:24:26.461Z,68.00
2018-09-30T04:24:59.492Z,67.90
2018-09-30T04:25:32.531Z,67.90
2018-09-30T04:26:05.585Z,67.90
2018-09-30T04:26:38.615Z,67.80
2018-09-30T04:27:11.648Z,67.90
2018-09-30T04:27:44.667Z,67.90
2018-09-30T04:28:17.699Z,67.90
2018-09-30T04:28:50.727Z,67.90
2018-09-30T04:29:24.519Z,68.00
2018-09-30T04:29:58.310Z,68.00
2018-09-30T04:30:32.125Z,68.80
2018-09-30T04:31:05.167Z,68.00
2018-09-30T04:31:38.198Z,68.00
2018-09-30T04:32:11.228Z,67.90
2018-09-30T04:32:45.023Z,67.90
2018-09-30T04:33:18.897Z,67.90
2018-09-30T04:33:52.607Z,67.80
2018-09-30T04:34:26.424Z,67.90
2018-09-30T04:34:59.626Z,68.00
2018-09-30T04:35:32.661Z,68.10
2018-09-30T04:36:05.724Z,68.20
2018-09-30T04:36:39.514Z,68.10
2018-09-30T04:37:13.317Z,68.20
2018-09-30T04:37:47.105Z,68.20
2018-09-30T04:38:20.899Z,68.30
2018-09-30T04:38:54.696Z,68.20
2018-09-30T04:39:28.489Z,68.20
2018-09-30T04:40:02.278Z,68.10
2018-09-30T04:40:36.078Z,68.10
2018-09-30T04:41:09.120Z,68.10
2018-09-30T04:41:42.141Z,68.10
2018-09-30T04:42:15.159Z,68.20
2018-09-30T04:42:48.203Z,68.20
2018-09-30T04:43:21.240Z,68.20
2018-09-30T04:43:54.268Z,68.20
2018-09-30T04:44:28.109Z,68.90
2018-09-30T04:45:01.130Z,68.20
2018-09-30T04:45:34.152Z,68.30
2018-09-30T04:46:07.996Z,68.30
2018-09-30T04:46:41.025Z,68.30
2018-09-30T04:47:14.816Z,68.30
2018-09-30T04:47:48.625Z,68.30
2018-09-30T04:48:21.650Z,68.30
2018-09-30T04:48:54.679Z,68.40
2018-09-30T04:49:27.719Z,68.50
2018-09-30T04:50:00.782Z,68.60
2018-09-30T04:50:33.768Z,68.60
2018-09-30T04:51:06.811Z,68.70
2018-09-30T04:51:39.847Z,68.60
2018-09-30T04:52:12.880Z,68.60
2018-09-30T04:52:45.916Z,68.50
2018-09-30T04:53:18.956Z,68.40
2018-09-30T04:53:52.752Z,68.50
2018-09-30T04:54:25.780Z,68.50
2018-09-30T04:54:59.040Z,68.50
2018-09-30T04:55:32.086Z,68.60
2018-09-30T04:56:05.135Z,68.80
2018-09-30T04:56:38.163Z,68.90
2018-09-30T04:57:11.201Z,68.90
2018-09-30T04:57:44.240Z,68.90
2018-09-30T04:58:17.268Z,68.80
2018-09-30T04:58:50.297Z,68.80
2018-09-30T04:59:23.331Z,68.90
2018-09-30T04:59:56.391Z,68.90
2018-09-30T05:00:29.424Z,69.00
2018-09-30T05:01:02.465Z,69.00
2018-09-30T05:01:36.423Z,69.00
2018-09-30T05:02:09.457Z,69.00
2018-09-30T05:02:42.478Z,69.00
2018-09-30T05:03:15.531Z,69.10
2018-09-30T05:03:49.332Z,69.10
2018-09-30T05:04:23.132Z,69.10
2018-09-30T05:04:56.169Z,69.10
2018-09-30T05:05:29.216Z,69.00
2018-09-30T05:06:02.258Z,69.10
2018-09-30T05:06:36.049Z,69.10
2018-09-30T05:07:09.838Z,69.10
2018-09-30T05:07:42.875Z,69.00
2018-09-30T05:08:15.908Z,69.10
2018-09-30T05:08:48.937Z,69.00
2018-09-30T05:09:21.968Z,69.10
2018-09-30T05:09:54.997Z,69.20
2018-09-30T05:10:28.792Z,69.20
2018-09-30T05:11:01.839Z,69.20
2018-09-30T05:11:34.868Z,69.10
2018-09-30T05:12:07.911Z,69.10
2018-09-30T05:12:40.947Z,69.10
2018-09-30T05:13:14.240Z,69.10
2018-09-30T05:13:47.287Z,69.10
2018-09-30T05:14:20.359Z,69.00
2018-09-30T05:14:53.385Z,69.10
2018-09-30T05:15:27.189Z,69.10
2018-09-30T05:16:01.034Z,69.10
2018-09-30T05:16:34.124Z,69.00
2018-09-30T05:17:07.101Z,69.20
2018-09-30T05:17:40.232Z,69.10
2018-09-30T05:18:13.267Z,69.20
2018-09-30T05:18:46.303Z,69.20
2018-09-30T05:19:20.100Z,69.10
2018-09-30T05:19:53.136Z,69.10
2018-09-30T05:20:26.172Z,69.20
2018-09-30T05:20:59.214Z,69.10
2018-09-30T05:21:32.252Z,69.10
2018-09-30T05:22:06.081Z,69.30
2018-09-30T05:22:39.107Z,69.20
2018-09-30T05:23:12.153Z,69.30
2018-09-30T05:23:45.203Z,69.40
2018-09-30T05:24:18.239Z,70.20
2018-09-30T05:24:52.040Z,69.40
2018-09-30T05:25:25.060Z,69.40
2018-09-30T05:25:58.093Z,69.40
2018-09-30T05:26:31.144Z,69.40
2018-09-30T05:27:04.198Z,69.50
2018-09-30T05:27:37.979Z,69.50
2018-09-30T05:28:11.795Z,69.60
2018-09-30T05:28:44.828Z,69.50
2018-09-30T05:29:17.861Z,69.60
2018-09-30T05:29:50.891Z,69.60
2018-09-30T05:30:23.957Z,69.60
2018-09-30T05:30:56.999Z,70.60
2018-09-30T05:31:30.033Z,69.70
2018-09-30T05:32:03.077Z,69.70
2018-09-30T05:32:36.117Z,69.70
2018-09-30T05:33:09.143Z,69.60
2018-09-30T05:33:42.200Z,69.70
2018-09-30T05:34:15.240Z,69.70
2018-09-30T05:34:48.262Z,69.80
2018-09-30T05:35:21.308Z,69.90
2018-09-30T05:35:54.336Z,70.80
2018-09-30T05:36:27.387Z,70.00
2018-09-30T05:37:00.637Z,70.00
2018-09-30T05:37:33.696Z,69.90
2018-09-30T05:38:07.505Z,70.00
2018-09-30T05:38:40.537Z,69.90
2018-09-30T05:39:13.577Z,70.00
2018-09-30T05:39:46.632Z,70.00
2018-09-30T05:40:19.728Z,70.20
2018-09-30T05:40:52.763Z,70.00
2018-09-30T05:41:25.796Z,70.00
2018-09-30T05:41:58.818Z,70.10
2018-09-30T05:42:31.855Z,69.90
2018-09-30T05:43:04.892Z,70.00
2018-09-30T05:43:37.912Z,69.90
2018-09-30T05:44:11.719Z,70.10
2018-09-30T05:44:45.513Z,70.10
2018-09-30T05:45:19.298Z,70.10
2018-09-30T05:45:53.093Z,70.20
2018-09-30T05:46:26.902Z,70.10
2018-09-30T05:46:59.931Z,70.10
2018-09-30T05:47:32.958Z,70.00
2018-09-30T05:48:05.981Z,70.10
2018-09-30T05:48:39.011Z,70.20
2018-09-30T05:49:12.050Z,70.20
2018-09-30T05:49:45.074Z,70.20
2018-09-30T05:50:18.109Z,70.30
2018-09-30T05:50:51.900Z,70.30
2018-09-30T05:51:25.729Z,70.30
2018-09-30T05:51:58.760Z,70.30
2018-09-30T05:52:32.553Z,70.40
2018-09-30T05:53:05.588Z,70.20
2018-09-30T05:53:38.658Z,70.30
2018-09-30T05:54:11.687Z,70.40
2018-09-30T05:54:45.480Z,70.40
2018-09-30T05:55:19.297Z,70.50
2018-09-30T05:55:52.334Z,70.50
2018-09-30T05:56:25.378Z,70.60
2018-09-30T05:56:58.428Z,70.60
2018-09-30T05:57:31.467Z,70.70
2018-09-30T05:58:05.564Z,70.80
2018-09-30T05:58:38.559Z,70.80
2018-09-30T05:59:11.655Z,70.80
2018-09-30T05:59:44.688Z,70.80
2018-09-30T06:00:18.484Z,70.80
2018-09-30T06:00:52.280Z,70.80
2018-09-30T06:01:25.310Z,70.80
2018-09-30T06:01:58.363Z,70.70
2018-09-30T06:02:31.395Z,70.80
2018-09-30T06:03:05.184Z,70.90
2018-09-30T06:03:38.218Z,70.90
2018-09-30T06:04:11.258Z,70.90
2018-09-30T06:04:44.292Z,70.90
2018-09-30T06:05:17.328Z,70.90
2018-09-30T06:05:50.365Z,71.10
2018-09-30T06:06:24.164Z,71.10
2018-09-30T06:06:57.979Z,71.10
2018-09-30T06:07:31.018Z,71.10
2018-09-30T06:08:04.072Z,71.00
2018-09-30T06:08:37.866Z,71.10
2018-09-30T06:09:10.973Z,71.10
2018-09-30T06:09:43.936Z,71.00
2018-09-30T06:10:17.200Z,71.10
2018-09-30T06:10:50.242Z,71.10
2018-09-30T06:11:23.280Z,71.20
2018-09-30T06:11:57.076Z,71.30
2018-09-30T06:12:30.111Z,71.20
2018-09-30T06:13:03.171Z,71.30
2018-09-30T06:13:36.203Z,71.20
2018-09-30T06:14:09.472Z,71.30
2018-09-30T06:14:42.268Z,71.40
2018-09-30T06:15:15.295Z,71.40
2018-09-30T06:15:48.384Z,71.40
2018-09-30T06:16:21.391Z,72.60
2018-09-30T06:16:54.435Z,72.70
2018-09-30T06:17:27.468Z,73.00
2018-09-30T06:18:00.516Z,71.60
2018-09-30T06:18:33.548Z,72.80
2018-09-30T06:19:07.356Z,72.60
2018-09-30T06:19:40.393Z,72.40
2018-09-30T06:20:13.431Z,72.70
2018-09-30T06:20:46.455Z,72.70
2018-09-30T06:21:20.280Z,73.00
2018-09-30T06:21:53.312Z,72.80
2018-09-30T06:22:26.347Z,72.90
2018-09-30T06:22:59.525Z,73.30
2018-09-30T06:23:32.563Z,73.30
2018-09-30T06:24:06.427Z,73.20
2018-09-30T06:24:39.375Z,73.10
2018-09-30T06:25:13.184Z,75.30
2018-09-30T06:25:46.241Z,75.30
2018-09-30T06:26:19.276Z,75.30
2018-09-30T06:26:52.305Z,75.70
2018-09-30T06:27:25.323Z,75.80
2018-09-30T06:27:59.116Z,75.90
2018-09-30T06:28:32.903Z,75.60
2018-09-30T06:29:06.691Z,75.70
2018-09-30T06:29:40.495Z,75.60
2018-09-30T06:30:13.539Z,75.60
2018-09-30T06:30:46.582Z,75.50
2018-09-30T06:31:19.610Z,75.70
2018-09-30T06:31:53.435Z,75.40
2018-09-30T06:32:26.471Z,75.40
2018-09-30T06:32:59.790Z,75.40
2018-09-30T06:33:33.564Z,75.40
2018-09-30T06:34:06.594Z,75.40
2018-09-30T06:34:39.620Z,75.50
2018-09-30T06:35:12.659Z,75.30
2018-09-30T06:35:46.445Z,75.70
2018-09-30T06:36:19.484Z,75.40
2018-09-30T06:36:52.511Z,75.40
2018-09-30T06:37:26.345Z,74.20
2018-09-30T06:37:59.369Z,75.30
2018-09-30T06:38:32.400Z,74.00
2018-09-30T06:39:05.446Z,74.00
2018-09-30T06:39:38.498Z,75.10
2018-09-30T06:40:12.311Z,73.90
2018-09-30T06:40:45.361Z,73.90
2018-09-30T06:41:19.167Z,73.70
2018-09-30T06:41:52.209Z,73.60
2018-09-30T06:42:25.257Z,73.60
2018-09-30T06:42:58.293Z,73.70
2018-09-30T06:43:31.320Z,73.30
2018-09-30T06:44:04.350Z,73.40
2018-09-30T06:44:37.383Z,74.20
2018-09-30T06:45:10.491Z,73.40
2018-09-30T06:45:43.477Z,73.40
2018-09-30T06:46:16.529Z,73.20
2018-09-30T06:46:49.560Z,73.20
2018-09-30T06:47:23.361Z,73.10
2018-09-30T06:47:56.380Z,73.10
2018-09-30T06:48:30.191Z,72.90
2018-09-30T06:49:03.984Z,73.00
2018-09-30T06:49:37.042Z,73.00
2018-09-30T06:50:10.359Z,72.70
2018-09-30T06:50:43.467Z,72.60
2018-09-30T06:51:16.429Z,72.50
2018-09-30T06:51:49.468Z,72.90
2018-09-30T06:52:22.503Z,72.50
2018-09-30T06:52:55.534Z,72.10
2018-09-30T06:53:28.548Z,71.20
2018-09-30T06:54:01.569Z,71.40
2018-09-30T06:54:34.612Z,71.70
2018-09-30T06:55:07.696Z,72.00
2018-09-30T06:55:40.752Z,71.70
2018-09-30T06:56:13.817Z,71.70
2018-09-30T06:56:46.872Z,71.40
2018-09-30T06:57:19.895Z,71.40
2018-09-30T06:57:52.952Z,71.10
2018-09-30T06:58:26.762Z,70.90
2018-09-30T06:58:59.813Z,71.70
2018-09-30T06:59:33.468Z,70.60
2018-09-30T07:00:06.487Z,70.90
2018-09-30T07:00:39.540Z,70.70
2018-09-30T07:01:12.589Z,70.50
2018-09-30T07:01:45.895Z,70.40
2018-09-30T07:02:19.737Z,70.40
2018-09-30T07:02:52.785Z,70.30
2018-09-30T07:03:26.620Z,70.40
2018-09-30T07:04:00.364Z,70.00
2018-09-30T07:04:34.164Z,69.80
2018-09-30T07:05:07.971Z,69.70
2018-09-30T07:05:41.015Z,69.60
2018-09-30T07:06:14.058Z,69.50
2018-09-30T07:06:47.100Z,69.50
2018-09-30T07:07:20.143Z,69.50
2018-09-30T07:07:53.220Z,69.60
2018-09-30T07:08:26.256Z,69.60
2018-09-30T07:08:59.291Z,69.60
2018-09-30T07:09:32.378Z,69.10
2018-09-30T07:10:05.427Z,69.00